Kirksville

Airport
ICAO code: 
KIRK
Summary
ICAO Region: 
NAM
Territory: 
Location: 
Kirksville, Adair County, Missouri,
Coordinates: 
Aerial View: 
40° 5' 36.594" N, 92° 32' 41.636" W
Metar
Observation
KIRK 070255Z AUTO 00000KT 10SM CLR M08/M12 A3031 RMK AO2 SLP280 T10831122 51004
Station
Kirksville, Kirksville Regional Airport
Date/Time
2021-12-07 02:55:00
Wind direction
Wind speed
00 kts
Lowest cloud amount
n/a
Temperature
-8.3°C
Dew point
-12.2°C
Humidity
73%
Weather condition
n/a

Description

Kirksville Regional Airport (IATA: IRK) is a public airport located 6 nm southeast of the central business district of Kirksville, a city in Adair County, Missouri, United States. The airport is located in unincorporated Adair County and is owned by the City of Kirksville. It is mostly used for general aviation, but is also served by one commercial airline.

Climatology

Humid continental climate (Köppen climate classification Dfa) - characterized by four seasons: cold, windy, snowy winters, mild springs, hot, humid summers, and crisp and relatively short autumns. Precipitation reaches its lowest in January and February and peaks in summer and latter half of spring.

Runways

Designator Length Width Surface Rops
9/27 425 30 GRE No/No
18/36 1830 30 CON No/No
Airport map: 
Aerial View: 

SKYbrary Partners:

Safety knowledge contributed by: